Time;durP1;ratioP1;P1;durP2;ratioP2;P2;SDS_P1;SDS_P2;PMS_P1;PMS_P2;Temp;Humidity;BMP_temperature;BMP_pressure;BME280_temperature;BME280_humidity;BME280_pressure;Samples;Min_cycle;Max_cycle;Signal;HPM_P1;HPM_P2
2022/07/13 00:01:09;;;;;;;2.03;1.93;;;20.00;99.90;;;;;;5075022;28;20534;-59
2022/07/13 00:03:36;;;;;;;2.23;2.03;;;20.00;99.90;;;;;;5075064;28;20458;-59
2022/07/13 00:06:02;;;;;;;2.03;1.83;;;19.60;99.90;;;;;;5074471;28;20929;-59
2022/07/13 00:08:29;;;;;;;2.43;2.23;;;19.10;99.90;;;;;;5074749;28;20997;-59
2022/07/13 00:10:56;;;;;;;1.70;1.60;;;19.20;99.90;;;;;;5074954;28;20443;-59
2022/07/13 00:13:22;;;;;;;1.90;1.80;;;19.20;99.90;;;;;;5074818;28;20454;-59
2022/07/13 00:15:50;;;;;;;2.27;2.07;;;19.40;99.90;;;;;;5074772;28;20447;-59
2022/07/13 00:18:16;;;;;;;1.80;1.70;;;19.40;99.90;;;;;;5074657;28;20538;-59
2022/07/13 00:20:44;;;;;;;3.80;2.20;;;19.40;99.90;;;;;;5074572;28;20448;-59
2022/07/13 00:23:11;;;;;;;2.23;2.13;;;19.50;99.90;;;;;;5074375;28;20481;-59
2022/07/13 00:25:38;;;;;;;3.83;2.37;;;19.50;99.90;;;;;;5074635;28;20454;-60
2022/07/13 00:28:04;;;;;;;2.60;2.30;;;19.50;99.90;;;;;;5074438;28;20841;-59
2022/07/13 00:30:31;;;;;;;2.13;2.03;;;19.40;99.90;;;;;;5074438;28;20555;-60
2022/07/13 00:32:59;;;;;;;4.17;2.03;;;19.40;99.90;;;;;;5074391;28;20444;-59
2022/07/13 00:35:25;;;;;;;2.10;1.90;;;19.40;99.90;;;;;;5074304;28;20447;-59
2022/07/13 00:37:52;;;;;;;1.97;1.87;;;19.50;99.90;;;;;;5074221;28;20540;-60
2022/07/13 00:40:19;;;;;;;2.00;1.90;;;19.50;99.90;;;;;;5074232;28;20447;-59
2022/07/13 00:42:45;;;;;;;2.50;2.30;;;19.50;99.90;;;;;;5074201;28;20469;-59
2022/07/13 00:45:11;;;;;;;2.40;2.30;;;19.50;99.90;;;;;;5074071;28;20447;-59
2022/07/13 00:47:38;;;;;;;3.40;2.17;;;19.60;99.90;;;;;;5074072;28;20443;-59
2022/07/13 00:50:08;;;;;;;2.53;2.33;;;19.70;99.90;;;;;;5073849;28;20853;-59
2022/07/13 00:52:36;;;;;;;3.33;2.40;;;19.70;99.90;;;;;;5073828;28;20530;-59
2022/07/13 00:55:04;;;;;;;2.33;2.23;;;19.80;99.90;;;;;;5073950;28;20449;-60
2022/07/13 00:57:33;;;;;;;2.87;2.43;;;19.80;99.90;;;;;;5073653;28;20566;-59
2022/07/13 01:00:00;;;;;;;2.33;2.13;;;19.90;99.90;;;;;;5073728;28;20440;-59
2022/07/13 01:02:27;;;;;;;2.50;2.20;;;19.90;99.90;;;;;;5073752;28;20942;-59
2022/07/13 01:04:53;;;;;;;3.03;2.20;;;19.90;99.90;;;;;;5073548;28;20810;-59
2022/07/13 01:07:21;;;;;;;2.37;2.27;;;19.90;99.90;;;;;;5073752;28;20443;-60
2022/07/13 01:09:48;;;;;;;3.30;2.33;;;20.00;99.90;;;;;;5073573;28;20483;-59
2022/07/13 01:12:15;;;;;;;2.30;2.10;;;20.00;99.90;;;;;;5073571;28;20443;-59
2022/07/13 01:14:42;;;;;;;2.90;2.70;;;20.10;99.90;;;;;;5073451;28;20443;-59
2022/07/13 01:17:09;;;;;;;2.47;2.27;;;20.10;99.90;;;;;;5072700;28;20802;-59
2022/07/13 01:19:36;;;;;;;2.47;2.27;;;20.20;99.90;;;;;;5073363;28;20443;-59
2022/07/13 01:22:03;;;;;;;2.00;1.80;;;20.20;99.90;;;;;;5073438;28;20454;-59
2022/07/13 01:24:32;;;;;;;2.20;2.10;;;20.20;99.90;;;;;;5073281;28;20530;-59
2022/07/13 01:27:00;;;;;;;3.53;2.13;;;20.30;99.90;;;;;;5073442;28;20942;-59
2022/07/13 01:29:27;;;;;;;2.20;2.07;;;20.30;99.90;;;;;;5073198;28;20483;-59
2022/07/13 01:31:58;;;;;;;2.17;2.03;;;20.30;99.90;;;;;;5073036;28;20961;-59
2022/07/13 01:34:25;;;;;;;2.50;2.30;;;20.30;99.90;;;;;;5073195;28;20961;-60
2022/07/13 01:36:51;;;;;;;2.50;2.30;;;20.30;99.90;;;;;;5073363;28;20806;-59
2022/07/13 01:39:18;;;;;;;2.23;2.13;;;20.20;99.90;;;;;;5073455;28;20458;-59
2022/07/13 01:41:46;;;;;;;2.50;2.30;;;20.30;99.90;;;;;;5072991;28;20946;-59
2022/07/13 01:44:14;;;;;;;2.10;2.00;;;20.30;99.90;;;;;;5073013;28;20461;-60
2022/07/13 01:46:40;;;;;;;5.13;2.47;;;20.30;99.90;;;;;;5072950;28;20487;-59
2022/07/13 01:49:07;;;;;;;2.30;2.20;;;20.20;99.90;;;;;;5073082;28;20479;-59
2022/07/13 01:51:33;;;;;;;2.10;2.00;;;20.20;99.90;;;;;;5073096;28;20562;-59
2022/07/13 01:54:00;;;;;;;2.43;1.80;;;20.20;99.90;;;;;;5073030;28;20447;-59
2022/07/13 01:56:26;;;;;;;2.13;1.93;;;20.20;99.90;;;;;;5072810;28;20832;-59
2022/07/13 01:58:54;;;;;;;3.30;1.90;;;20.10;99.90;;;;;;5072877;28;20451;-59
2022/07/13 02:01:21;;;;;;;2.17;2.03;;;20.10;99.90;;;;;;5073112;28;20819;-60
2022/07/13 02:03:48;;;;;;;2.30;2.10;;;20.20;99.90;;;;;;5073003;28;20456;-59
2022/07/13 02:06:14;;;;;;;2.00;1.90;;;20.10;99.90;;;;;;5072982;28;20456;-59
2022/07/13 02:08:40;;;;;;;2.57;1.90;;;20.20;99.90;;;;;;5072837;28;20966;-59
2022/07/13 02:11:07;;;;;;;2.03;1.90;;;20.10;99.90;;;;;;5072785;28;20473;-59
2022/07/13 02:13:33;;;;;;;2.27;2.10;;;20.10;99.90;;;;;;5072668;28;20486;-59
2022/07/13 02:16:01;;;;;;;3.47;1.90;;;19.80;99.90;;;;;;5072871;28;20447;-59
2022/07/13 02:18:28;;;;;;;2.40;2.20;;;19.70;99.90;;;;;;5072890;28;20543;-59
2022/07/13 02:20:54;;;;;;;3.87;2.03;;;19.60;99.90;;;;;;5072851;28;20453;-59
2022/07/13 02:23:21;;;;;;;2.10;1.80;;;19.60;99.90;;;;;;5072738;28;20453;-59
2022/07/13 02:25:47;;;;;;;1.93;1.60;;;19.60;99.90;;;;;;5072722;28;20443;-59
2022/07/13 02:28:14;;;;;;;2.90;1.60;;;19.70;99.90;;;;;;5074638;28;20449;-59
2022/07/13 02:30:40;;;;;;;1.60;1.50;;;19.70;99.90;;;;;;5076840;28;20482;-59
2022/07/13 02:33:08;;;;;;;3.27;1.80;;;19.70;99.90;;;;;;5076746;28;20490;-59
2022/07/13 02:35:34;;;;;;;2.17;1.87;;;19.70;99.90;;;;;;5076484;28;21023;-59
2022/07/13 02:38:01;;;;;;;2.40;1.80;;;19.80;99.90;;;;;;5076473;28;20448;-59
2022/07/13 02:40:27;;;;;;;1.67;1.50;;;19.90;99.90;;;;;;5076437;28;20881;-60
2022/07/13 02:42:54;;;;;;;3.40;1.43;;;19.90;99.90;;;;;;5076364;28;20447;-60
2022/07/13 02:45:20;;;;;;;2.17;2.00;;;20.00;99.90;;;;;;5076457;28;20447;-60
2022/07/13 02:47:47;;;;;;;3.47;1.77;;;20.00;99.90;;;;;;5076438;28;20447;-60
2022/07/13 02:50:15;;;;;;;1.70;1.60;;;20.00;99.90;;;;;;5076238;28;20569;-60
2022/07/13 02:52:41;;;;;;;1.53;1.40;;;20.00;99.90;;;;;;5076268;28;20814;-60
2022/07/13 02:55:09;;;;;;;2.03;1.63;;;20.00;99.90;;;;;;5076069;28;20949;-60
2022/07/13 02:57:35;;;;;;;1.83;1.70;;;20.00;99.90;;;;;;5075963;28;20474;-60
2022/07/13 03:00:02;;;;;;;1.80;1.70;;;20.00;99.90;;;;;;5076186;28;20447;-60
2022/07/13 03:02:28;;;;;;;1.73;1.63;;;19.90;99.90;;;;;;5076179;28;20487;-60
2022/07/13 03:04:55;;;;;;;2.20;1.87;;;20.00;99.90;;;;;;5076055;28;20963;-60
2022/07/13 03:07:24;;;;;;;1.70;1.60;;;20.00;99.90;;;;;;5075952;28;20439;-60
2022/07/13 03:09:52;;;;;;;1.87;1.77;;;19.90;99.90;;;;;;5075727;28;20505;-60
2022/07/13 03:12:18;;;;;;;1.53;1.43;;;20.00;99.90;;;;;;5076060;28;20451;-60
2022/07/13 03:14:45;;;;;;;1.87;1.77;;;19.90;99.90;;;;;;5075900;28;20496;-60
2022/07/13 03:17:11;;;;;;;2.10;2.00;;;19.90;99.90;;;;;;5075831;28;20485;-60
2022/07/13 03:19:38;;;;;;;2.27;1.73;;;19.70;99.90;;;;;;5075687;28;20969;-60
2022/07/13 03:22:05;;;;;;;4.23;1.90;;;19.70;99.90;;;;;;5075669;28;20798;-60
2022/07/13 03:24:33;;;;;;;2.27;2.07;;;19.70;99.90;;;;;;5076100;28;20542;-59
2022/07/13 03:27:00;;;;;;;2.00;1.70;;;19.50;99.90;;;;;;5075717;28;20444;-59
2022/07/13 03:29:26;;;;;;;3.50;1.90;;;19.50;99.90;;;;;;5075592;28;20522;-59
2022/07/13 03:31:53;;;;;;;2.90;1.73;;;19.60;99.90;;;;;;5075571;28;20814;-59
2022/07/13 03:34:20;;;;;;;2.10;1.87;;;19.70;99.90;;;;;;5075417;28;20485;-59
2022/07/13 03:36:46;;;;;;;1.87;1.67;;;19.80;99.90;;;;;;5075399;28;20475;-60
2022/07/13 03:39:12;;;;;;;3.73;1.60;;;19.90;99.90;;;;;;5074463;28;20542;-59
2022/07/13 03:41:40;;;;;;;2.70;2.00;;;19.90;99.90;;;;;;5075464;28;20452;-59
2022/07/13 03:44:07;;;;;;;1.87;1.77;;;20.00;99.90;;;;;;5075294;28;20480;-59
2022/07/13 03:46:34;;;;;;;2.00;1.57;;;20.00;99.90;;;;;;5075248;28;20938;-59
2022/07/13 03:49:00;;;;;;;5.80;2.00;;;20.00;99.90;;;;;;5075147;28;20538;-59
2022/07/13 03:51:26;;;;;;;1.80;1.70;;;20.10;99.90;;;;;;5074990;28;20546;-59
2022/07/13 03:53:53;;;;;;;3.20;1.70;;;20.10;99.90;;;;;;5074973;28;20927;-59
2022/07/13 03:56:19;;;;;;;1.87;1.57;;;20.10;99.90;;;;;;5075009;28;21104;-60
2022/07/13 03:58:47;;;;;;;2.20;1.93;;;20.20;99.90;;;;;;5075113;28;20451;-59
2022/07/13 04:01:14;;;;;;;2.13;1.93;;;20.10;99.90;;;;;;5074955;28;20458;-59
2022/07/13 04:03:40;;;;;;;1.77;1.30;;;20.00;99.90;;;;;;5074825;28;20447;-60
2022/07/13 04:06:07;;;;;;;2.33;1.47;;;20.00;99.90;;;;;;5074770;28;20458;-60
2022/07/13 04:08:33;;;;;;;3.40;1.90;;;20.00;99.90;;;;;;5074883;28;20814;-60
2022/07/13 04:10:59;;;;;;;3.43;2.40;;;20.10;99.90;;;;;;5074745;28;20479;-60
2022/07/13 04:13:26;;;;;;;1.70;1.60;;;20.00;99.90;;;;;;5074814;28;20482;-60
2022/07/13 04:15:54;;;;;;;1.80;1.70;;;20.00;99.90;;;;;;5074703;28;20544;-60
2022/07/13 04:18:20;;;;;;;3.53;1.87;;;20.00;99.90;;;;;;5074572;28;20459;-60
2022/07/13 04:20:47;;;;;;;3.83;2.37;;;20.10;99.90;;;;;;5074507;28;20443;-61
2022/07/13 04:23:13;;;;;;;2.30;2.10;;;20.10;99.90;;;;;;5074606;28;20550;-60
2022/07/13 04:25:40;;;;;;;2.40;1.80;;;20.10;99.90;;;;;;5074403;28;20451;-60
2022/07/13 04:28:06;;;;;;;3.83;2.23;;;20.10;99.90;;;;;;5074310;28;20451;-60
2022/07/13 04:30:33;;;;;;;1.80;1.70;;;20.10;99.90;;;;;;5074374;28;20479;-59
2022/07/13 04:33:00;;;;;;;2.47;1.80;;;20.00;99.90;;;;;;5074287;28;20493;-59
2022/07/13 04:35:27;;;;;;;1.87;1.60;;;20.00;99.90;;;;;;5074241;28;20447;-59
2022/07/13 04:37:53;;;;;;;2.23;2.03;;;20.00;99.90;;;;;;5074236;28;20449;-59
2022/07/13 04:40:20;;;;;;;2.20;2.00;;;20.10;99.90;;;;;;5074489;28;20451;-59
2022/07/13 04:42:46;;;;;;;4.23;1.80;;;19.90;99.90;;;;;;5074156;28;20450;-60
2022/07/13 04:45:13;;;;;;;1.87;1.77;;;19.90;99.90;;;;;;5074075;28;20448;-60
2022/07/13 04:47:40;;;;;;;6.60;2.20;;;20.00;99.90;;;;;;5073927;28;20471;-60
2022/07/13 04:50:08;;;;;;;4.23;2.13;;;20.10;99.90;;;;;;5073977;28;20490;-60
2022/07/13 04:52:35;;;;;;;3.10;2.40;;;20.10;99.90;;;;;;5073118;28;21013;-59
2022/07/13 04:55:01;;;;;;;3.47;2.17;;;20.10;99.90;;;;;;5073859;28;20449;-60
2022/07/13 04:57:29;;;;;;;4.47;2.17;;;20.20;99.90;;;;;;5073626;28;20481;-59
2022/07/13 04:59:55;;;;;;;2.93;2.00;;;20.20;99.90;;;;;;5073754;28;20822;-60
2022/07/13 05:02:22;;;;;;;4.80;2.00;;;20.30;99.90;;;;;;5073582;28;20447;-60
2022/07/13 05:04:49;;;;;;;6.00;2.57;;;20.30;99.90;;;;;;5073491;28;20538;-61
2022/07/13 05:07:16;;;;;;;6.60;3.23;;;20.40;99.90;;;;;;5073673;28;20451;-59
2022/07/13 05:09:43;;;;;;;8.20;1.97;;;20.50;99.90;;;;;;5073500;28;20881;-60
2022/07/13 05:12:10;;;;;;;3.20;1.60;;;20.50;99.90;;;;;;5073553;28;20538;-59
2022/07/13 05:14:36;;;;;;;7.60;2.40;;;20.60;99.90;;;;;;5073351;28;20482;-60
2022/07/13 05:17:03;;;;;;;2.30;2.10;;;20.60;99.90;;;;;;5073378;28;20448;-60
2022/07/13 05:19:29;;;;;;;4.63;2.03;;;20.60;99.90;;;;;;5073280;28;20973;-60
2022/07/13 05:21:56;;;;;;;2.70;2.17;;;20.50;99.90;;;;;;5073382;28;20811;-59
2022/07/13 05:24:23;;;;;;;6.47;2.00;;;20.60;99.90;;;;;;5073331;28;20479;-60
2022/07/13 05:26:50;;;;;;;4.23;2.37;;;20.60;99.90;;;;;;5073125;28;20947;-60
2022/07/13 05:29:16;;;;;;;5.80;2.10;;;20.70;99.90;;;;;;5073147;28;20447;-60
2022/07/13 05:31:43;;;;;;;4.37;1.93;;;20.80;99.90;;;;;;5072800;28;20479;-59
2022/07/13 05:34:09;;;;;;;2.73;1.67;;;20.90;99.90;;;;;;5073247;28;20531;-60
2022/07/13 05:36:36;;;;;;;3.27;1.57;;;21.00;99.90;;;;;;5073262;28;20474;-60
2022/07/13 05:39:04;;;;;;;1.80;1.70;;;21.20;99.90;;;;;;5073173;28;20775;-60
2022/07/13 05:41:34;;;;;;;1.70;1.60;;;21.30;99.90;;;;;;5073118;28;20538;-60
2022/07/13 05:44:00;;;;;;;3.00;1.77;;;21.40;99.90;;;;;;5072910;28;20451;-59
2022/07/13 05:46:27;;;;;;;2.17;2.07;;;21.50;99.90;;;;;;5073178;28;20550;-60
2022/07/13 05:48:53;;;;;;;1.93;1.80;;;21.60;99.90;;;;;;5073148;28;20454;-60
2022/07/13 05:51:20;;;;;;;3.20;2.67;;;21.60;99.90;;;;;;5072940;28;20489;-59
2022/07/13 05:53:47;;;;;;;3.83;1.90;;;21.70;99.90;;;;;;5072901;28;20454;-59
2022/07/13 05:56:13;;;;;;;3.40;1.77;;;21.80;99.90;;;;;;5072646;28;20526;-60
2022/07/13 05:58:41;;;;;;;3.30;2.10;;;21.80;99.90;;;;;;5072778;28;21001;-60
2022/07/13 06:01:08;;;;;;;4.27;2.40;;;21.90;99.90;;;;;;5073058;28;20457;-60
2022/07/13 06:03:34;;;;;;;4.80;2.50;;;21.90;99.90;;;;;;5072266;28;20962;-60
2022/07/13 06:06:01;;;;;;;1.93;1.73;;;21.90;99.90;;;;;;5072838;28;20450;-60
2022/07/13 06:08:27;;;;;;;5.53;2.97;;;22.00;99.90;;;;;;5072702;28;20534;-59
2022/07/13 06:10:54;;;;;;;3.83;2.03;;;22.00;99.90;;;;;;5072593;28;20911;-60
2022/07/13 06:13:20;;;;;;;4.07;2.00;;;22.00;99.90;;;;;;5072591;28;20500;-60
2022/07/13 06:15:48;;;;;;;2.83;1.90;;;22.10;99.90;;;;;;5072909;28;20448;-60
2022/07/13 06:18:14;;;;;;;3.40;2.03;;;22.10;99.90;;;;;;5072719;28;20454;-60
2022/07/13 06:20:41;;;;;;;3.93;2.03;;;22.20;99.90;;;;;;5072652;28;20479;-59
2022/07/13 06:23:10;;;;;;;1.90;1.70;;;22.30;99.90;;;;;;5072580;28;20453;-59
2022/07/13 06:25:37;;;;;;;5.83;1.57;;;22.30;99.90;;;;;;5072551;28;20484;-60
2022/07/13 06:28:04;;;;;;;4.30;2.23;;;22.40;99.90;;;;;;5072708;28;20482;-60
2022/07/13 06:30:30;;;;;;;1.67;1.50;;;22.30;99.90;;;;;;5072633;28;20505;-60
2022/07/13 06:32:58;;;;;;;3.17;1.77;;;22.40;99.90;;;;;;5072500;28;20448;-59
2022/07/13 06:35:25;;;;;;;2.53;2.03;;;22.40;99.90;;;;;;5072617;28;20534;-60
2022/07/13 06:37:51;;;;;;;2.23;2.03;;;22.50;99.90;;;;;;5072544;28;20439;-60
2022/07/13 06:40:18;;;;;;;2.30;2.10;;;22.50;99.90;;;;;;5072303;28;20455;-59
2022/07/13 06:42:44;;;;;;;2.40;1.90;;;22.60;99.90;;;;;;5072598;28;20512;-61
2022/07/13 06:45:11;;;;;;;2.30;2.10;;;22.70;99.90;;;;;;5072513;28;21074;-59
2022/07/13 06:47:38;;;;;;;3.17;2.17;;;22.80;99.90;;;;;;5070035;28;20447;-60
2022/07/13 06:50:07;;;;;;;2.23;1.93;;;22.90;99.90;;;;;;5072256;28;20966;-59
2022/07/13 06:52:33;;;;;;;2.30;1.50;;;23.00;99.90;;;;;;5068027;28;20450;-60
2022/07/13 06:55:00;;;;;;;2.80;1.57;;;23.20;99.90;;;;;;5072326;28;20439;-59
2022/07/13 06:57:27;;;;;;;2.80;2.33;;;23.30;99.90;;;;;;5065475;28;20476;-59
2022/07/13 06:59:53;;;;;;;4.40;1.90;;;23.30;99.90;;;;;;5052153;28;20458;-59
2022/07/13 07:02:20;;;;;;;2.37;1.80;;;23.40;99.90;;;;;;5052038;28;20535;-60
2022/07/13 07:04:46;;;;;;;7.63;2.50;;;23.60;99.90;;;;;;5052077;28;20488;-60
2022/07/13 07:07:14;;;;;;;3.10;2.33;;;23.70;99.90;;;;;;5051983;28;20528;-60
2022/07/13 07:09:41;;;;;;;1.87;1.40;;;23.90;99.90;;;;;;5052408;28;20478;-60
2022/07/13 07:12:07;;;;;;;3.77;1.80;;;24.20;99.90;;;;;;5052167;28;20483;-60
2022/07/13 07:14:34;;;;;;;3.87;2.33;;;24.30;99.90;;;;;;5053098;28;20452;-60
2022/07/13 07:17:02;;;;;;;2.80;1.83;;;24.40;99.90;;;;;;5055806;28;20455;-60
2022/07/13 07:19:29;;;;;;;3.00;1.60;;;24.60;99.90;;;;;;5055676;28;20448;-59
2022/07/13 07:21:55;;;;;;;4.60;1.90;;;24.70;99.90;;;;;;5055453;28;20454;-60
2022/07/13 07:24:23;;;;;;;1.60;1.50;;;24.90;99.90;;;;;;5055606;28;20558;-60
2022/07/13 07:26:51;;;;;;;1.30;1.20;;;24.90;99.90;;;;;;5055695;28;20452;-60
2022/07/13 07:29:17;;;;;;;1.47;1.30;;;24.90;99.90;;;;;;5055534;28;20490;-60
2022/07/13 07:31:44;;;;;;;2.70;1.50;;;24.90;99.90;;;;;;5055331;28;20886;-60
2022/07/13 07:34:10;;;;;;;1.63;1.53;;;25.00;99.90;;;;;;5055321;28;20539;-60
2022/07/13 07:36:37;;;;;;;1.70;1.60;;;25.10;99.90;;;;;;5055214;28;20448;-60
2022/07/13 07:39:03;;;;;;;1.67;1.20;;;25.10;99.90;;;;;;5055257;28;20904;-60
2022/07/13 07:41:31;;;;;;;3.07;1.57;;;25.10;99.90;;;;;;5055413;28;20902;-60
2022/07/13 07:43:59;;;;;;;3.03;1.23;;;25.20;99.90;;;;;;5055284;28;20860;-59
2022/07/13 07:46:25;;;;;;;2.93;1.50;;;25.30;99.90;;;;;;5055045;28;20790;-60
2022/07/13 07:48:52;;;;;;;3.20;1.47;;;25.30;99.90;;;;;;5055070;28;20451;-60
2022/07/13 07:51:18;;;;;;;1.70;1.50;;;25.50;99.90;;;;;;5055109;28;20480;-61
2022/07/13 07:53:44;;;;;;;5.13;1.47;;;25.60;99.90;;;;;;5055145;28;20445;-58
2022/07/13 07:56:11;;;;;;;4.43;1.50;;;25.70;99.90;;;;;;5070830;28;20446;-58
2022/07/13 07:58:39;;;;;;;4.93;1.50;;;25.80;99.90;;;;;;5075047;28;20443;-58
2022/07/13 08:01:06;;;;;;;2.03;1.40;;;26.00;99.90;;;;;;5074908;28;20491;-59
2022/07/13 08:03:33;;;;;;;3.53;1.80;;;26.30;99.90;;;;;;5074693;28;20462;-59
2022/07/13 08:05:59;;;;;;;5.27;1.97;;;26.40;99.90;;;;;;5074921;28;20443;-56
2022/07/13 08:08:26;;;;;;;1.57;1.47;;;26.60;99.90;;;;;;5074777;28;20452;-56
2022/07/13 08:10:54;;;;;;;1.50;1.40;;;26.50;99.90;;;;;;5074597;28;20482;-58
2022/07/13 08:13:20;;;;;;;3.47;1.50;;;26.60;99.90;;;;;;5074673;28;20539;-58
2022/07/13 08:15:49;;;;;;;1.47;1.33;;;26.60;99.90;;;;;;5074498;28;20443;-58
2022/07/13 08:18:15;;;;;;;1.90;1.70;;;26.50;99.90;;;;;;5074430;28;20501;-59
2022/07/13 08:20:41;;;;;;;1.53;1.43;;;26.60;99.90;;;;;;5074430;28;21128;-58
2022/07/13 08:25:48;;;;;;;1.40;1.30;;;26.90;99.90;;;;;;5073896;28;20439;-58
2022/07/13 08:28:15;;;;;;;1.90;1.73;;;27.00;99.90;;;;;;5074068;28;20451;-58
2022/07/13 08:30:42;;;;;;;1.47;1.37;;;27.00;99.90;;;;;;5074076;28;20509;-58
2022/07/13 08:33:09;;;;;;;2.40;1.90;;;27.10;99.90;;;;;;5074310;28;20806;-58
2022/07/13 08:41:01;;;;;;;1.63;1.53;;;27.30;99.90;;;;;;5053988;28;20522;-58
2022/07/13 08:43:27;;;;;;;4.43;2.07;;;27.40;99.90;;;;;;5054098;28;20452;-58
2022/07/13 08:45:54;;;;;;;2.33;1.40;;;27.40;99.90;;;;;;5064638;28;20443;-57
2022/07/13 08:48:29;;;;;;;1.87;1.17;;;27.50;99.90;;;;;;5070139;28;20799;-58
2022/07/13 08:50:55;;;;;;;1.60;1.50;;;27.60;99.90;;;;;;5073838;28;20506;-58
2022/07/13 08:53:23;;;;;;;1.40;1.30;;;27.60;99.90;;;;;;5073685;28;20451;-59
2022/07/13 08:55:50;;;;;;;1.30;1.20;;;27.70;99.90;;;;;;5073558;28;20792;-59
2022/07/13 08:58:17;;;;;;;1.53;1.37;;;27.90;99.90;;;;;;5072113;28;20507;-58
2022/07/13 09:00:44;;;;;;;1.57;1.27;;;28.10;99.90;;;;;;5072991;28;20444;-58
2022/07/13 09:03:11;;;;;;;2.07;1.50;;;28.20;99.90;;;;;;5073447;28;20461;-60
2022/07/13 09:05:39;;;;;;;2.33;1.67;;;28.20;99.90;;;;;;5074994;28;20939;-59
2022/07/13 09:08:07;;;;;;;1.23;1.13;;;28.10;99.90;;;;;;5072970;28;20451;-60
2022/07/13 09:10:52;;;;;;;1.30;1.20;;;28.30;99.90;;;;;;5070497;28;20533;-58
2022/07/13 09:13:34;;;;;;;1.47;1.00;;;28.30;99.90;;;;;;5071253;28;20442;-58
2022/07/13 09:16:13;;;;;;;1.20;1.10;;;28.10;99.90;;;;;;5073396;28;20462;-52
2022/07/13 09:18:40;;;;;;;1.23;1.13;;;28.20;99.90;;;;;;5073093;28;20459;-53
2022/07/13 09:21:08;;;;;;;1.60;1.20;;;28.30;99.80;;;;;;5072997;28;20793;-49
2022/07/13 09:23:34;;;;;;;1.20;1.10;;;28.30;99.90;;;;;;5073281;28;20447;-59
2022/07/13 09:26:01;;;;;;;1.63;1.10;;;28.60;99.90;;;;;;5073143;28;20815;-57
2022/07/13 09:28:27;;;;;;;1.63;1.23;;;28.90;98.40;;;;;;5073108;28;20447;-57
2022/07/13 09:31:00;;;;;;;5.23;1.00;;;29.00;98.60;;;;;;5072757;28;20454;-57
2022/07/13 09:33:34;;;;;;;1.30;1.20;;;29.10;98.00;;;;;;5073194;28;20447;-53
2022/07/13 09:36:11;;;;;;;1.00;0.90;;;29.10;98.70;;;;;;5073077;28;20448;-58
2022/07/13 09:38:38;;;;;;;2.50;1.00;;;29.30;99.30;;;;;;5072461;28;20791;-58
2022/07/13 09:41:21;;;;;;;1.37;0.90;;;29.50;98.20;;;;;;5072843;28;20451;-61
2022/07/13 09:46:52;;;;;;;1.50;1.40;;;30.00;97.20;;;;;;5072943;28;20426;-59
2022/07/13 09:49:19;;;;;;;2.00;1.30;;;29.80;97.00;;;;;;5072466;28;20539;-58
2022/07/13 09:51:46;;;;;;;1.10;1.00;;;30.00;96.50;;;;;;5072432;28;20989;-58
2022/07/13 09:54:13;;;;;;;1.57;1.10;;;30.10;96.90;;;;;;5072871;28;20473;-61
2022/07/13 09:56:47;;;;;;;1.53;1.07;;;30.10;96.40;;;;;;5072830;28;20478;-60
2022/07/13 09:59:15;;;;;;;1.33;1.23;;;30.10;96.30;;;;;;5072706;28;20640;-60
2022/07/13 10:01:41;;;;;;;1.20;1.10;;;30.20;95.80;;;;;;5072701;28;20972;-57
2022/07/13 10:04:09;;;;;;;1.20;1.10;;;30.10;96.10;;;;;;5072507;28;20934;-55
2022/07/13 10:06:35;;;;;;;1.03;0.93;;;29.90;96.10;;;;;;5072510;28;20474;-58
2022/07/13 10:09:03;;;;;;;1.37;1.13;;;29.70;96.40;;;;;;5072764;28;20448;-57
2022/07/13 10:11:30;;;;;;;1.20;1.10;;;29.80;96.20;;;;;;5072532;28;20821;-58
2022/07/13 10:13:58;;;;;;;1.73;1.10;;;29.90;96.20;;;;;;5072371;28;20475;-59
2022/07/13 10:16:27;;;;;;;1.00;1.00;;;30.00;96.30;;;;;;5072637;28;20924;-59
2022/07/13 10:18:56;;;;;;;5.00;1.90;;;30.00;96.00;;;;;;5072206;28;20458;-57
2022/07/13 10:21:29;;;;;;;1.23;1.10;;;30.10;95.80;;;;;;5072513;28;20447;-58
2022/07/13 10:23:56;;;;;;;1.30;1.20;;;30.20;95.80;;;;;;5072247;28;20945;-57
2022/07/13 10:26:25;;;;;;;1.93;1.23;;;30.20;96.70;;;;;;5072275;28;20934;-58
2022/07/13 10:29:02;;;;;;;1.17;1.03;;;30.30;96.90;;;;;;5072303;28;20853;-58
2022/07/13 10:31:31;;;;;;;1.10;1.10;;;30.40;94.60;;;;;;5072061;28;20470;-58
2022/07/13 10:33:57;;;;;;;1.53;1.00;;;30.40;94.10;;;;;;5071876;28;20451;-60
2022/07/13 10:36:53;;;;;;;1.20;1.10;;;30.40;93.00;;;;;;5072385;28;20454;-61
2022/07/13 10:39:21;;;;;;;1.33;1.23;;;30.30;93.70;;;;;;5072216;28;20447;-57
2022/07/13 10:42:01;;;;;;;0.90;0.90;;;30.50;92.50;;;;;;5072289;28;20451;-59
2022/07/13 10:44:36;;;;;;;0.93;0.90;;;30.80;92.30;;;;;;5072254;28;20966;-54
2022/07/13 10:47:04;;;;;;;1.80;1.17;;;30.80;90.20;;;;;;5072483;28;20454;-60
2022/07/13 10:49:45;;;;;;;1.73;0.97;;;30.70;88.70;;;;;;5074717;28;20451;-60
2022/07/13 10:52:51;;;;;;;0.97;0.87;;;30.60;90.30;;;;;;5075859;28;20894;-59
2022/07/13 10:55:34;;;;;;;1.37;1.27;;;30.40;90.30;;;;;;5076248;28;20473;-60
2022/07/13 10:58:39;;;;;;;1.20;1.10;;;30.70;90.50;;;;;;5075847;28;20532;-59
2022/07/13 11:01:37;;;;;;;1.67;1.10;;;31.10;92.20;;;;;;5075674;28;20945;-59
2022/07/13 11:04:05;;;;;;;0.80;0.80;;;31.30;86.20;;;;;;5076156;28;20447;-59
2022/07/13 11:06:32;;;;;;;1.47;0.90;;;31.30;87.00;;;;;;5075943;28;20836;-60
2022/07/13 11:09:09;;;;;;;4.10;1.03;;;31.20;84.80;;;;;;5075669;28;20545;-61
2022/07/13 11:11:44;;;;;;;2.33;1.27;;;31.10;84.60;;;;;;5075862;28;20552;-61
2022/07/13 11:14:43;;;;;;;1.63;1.03;;;31.10;87.20;;;;;;5075783;28;20454;-64
2022/07/13 11:17:15;;;;;;;1.53;1.30;;;31.00;86.00;;;;;;5075365;28;20451;-63
2022/07/13 11:20:00;;;;;;;2.33;1.20;;;31.00;87.80;;;;;;5075662;28;20508;-64
2022/07/13 11:25:13;;;;;;;2.53;1.30;;;31.00;88.90;;;;;;5075542;28;20882;-61
2022/07/13 11:25:29;;;;;;;1.43;1.23;;;31.20;88.70;;;;;;5075191;28;20443;-64
2022/07/13 11:28:04;;;;;;;1.57;1.33;;;31.30;88.70;;;;;;5075305;28;20814;-54
2022/07/13 11:30:34;;;;;;;2.30;1.63;;;31.20;88.30;;;;;;5075079;28;20453;-57
2022/07/13 11:33:02;;;;;;;2.07;1.37;;;31.10;88.20;;;;;;5075430;28;20544;-58
2022/07/13 11:35:29;;;;;;;1.83;1.27;;;31.00;87.60;;;;;;5075241;28;20451;-59
2022/07/13 11:37:57;;;;;;;2.07;1.10;;;30.90;86.80;;;;;;5074943;28;20576;-58
2022/07/13 11:40:28;;;;;;;2.37;0.97;;;30.70;85.00;;;;;;5074936;28;20961;-61
2022/07/13 11:42:55;;;;;;;1.30;1.20;;;30.70;84.80;;;;;;5075191;28;20451;-61
2022/07/13 11:45:27;;;;;;;2.17;1.10;;;30.60;83.60;;;;;;5075064;28;20570;-60
2022/07/13 11:47:57;;;;;;;1.30;1.20;;;30.50;83.60;;;;;;5075181;28;20541;-57
2022/07/13 11:50:39;;;;;;;4.33;1.20;;;30.40;83.70;;;;;;5065419;28;20510;-56
2022/07/13 11:53:06;;;;;;;1.00;0.90;;;30.50;81.90;;;;;;5053148;28;20506;-55
2022/07/13 11:55:33;;;;;;;1.73;1.13;;;30.30;82.70;;;;;;5054377;28;20448;-56
2022/07/13 11:57:59;;;;;;;1.47;1.37;;;30.40;84.00;;;;;;5054829;28;20929;-57
2022/07/13 12:00:26;;;;;;;1.30;1.20;;;30.30;83.10;;;;;;5054380;28;20861;-56
2022/07/13 12:02:53;;;;;;;2.23;1.23;;;30.30;83.70;;;;;;5054879;28;20476;-57
2022/07/13 12:05:23;;;;;;;1.20;1.10;;;30.20;84.80;;;;;;5054699;28;20539;-57
2022/07/13 12:08:03;;;;;;;1.03;1.03;;;30.20;86.20;;;;;;5055080;28;20453;-56
2022/07/13 12:10:29;;;;;;;2.07;1.30;;;30.30;86.30;;;;;;5054803;28;20452;-57
2022/07/13 12:12:56;;;;;;;1.37;1.27;;;30.60;84.40;;;;;;5054633;28;20483;-55
2022/07/13 12:15:23;;;;;;;1.33;1.23;;;30.80;82.50;;;;;;5054654;28;20454;-56
2022/07/13 12:17:50;;;;;;;2.73;1.43;;;31.00;82.50;;;;;;5054944;28;20453;-57
2022/07/13 12:20:18;;;;;;;1.57;1.30;;;31.10;82.90;;;;;;5054681;28;20458;-57
2022/07/13 12:22:53;;;;;;;1.30;1.13;;;30.90;84.60;;;;;;5054435;28;21007;-57
2022/07/13 12:25:25;;;;;;;2.80;2.00;;;31.10;83.40;;;;;;5054408;28;20455;-57
2022/07/13 12:27:52;;;;;;;1.30;1.10;;;31.30;82.90;;;;;;5054390;28;20453;-57
2022/07/13 12:30:19;;;;;;;1.40;1.07;;;31.50;81.70;;;;;;5054374;28;20453;-57
2022/07/13 12:33:02;;;;;;;1.60;1.50;;;31.70;78.90;;;;;;5054344;28;20592;-57
2022/07/13 12:35:30;;;;;;;1.60;1.10;;;31.60;78.10;;;;;;5054366;28;20496;-57
2022/07/13 12:37:57;;;;;;;1.33;1.23;;;31.40;75.60;;;;;;5054220;28;20448;-57
2022/07/13 12:40:40;;;;;;;1.30;1.20;;;31.20;75.00;;;;;;5054118;28;20808;-57
2022/07/13 12:43:15;;;;;;;5.30;4.70;;;31.10;77.60;;;;;;5053938;28;20457;-55
2022/07/13 12:45:43;;;;;;;1.37;1.27;;;31.10;77.60;;;;;;5053933;28;20452;-57
2022/07/13 12:48:15;;;;;;;1.40;1.30;;;31.00;77.00;;;;;;5053773;28;20448;-57
2022/07/13 12:50:41;;;;;;;2.03;1.30;;;30.80;75.60;;;;;;5053755;28;20476;-56
2022/07/13 12:53:08;;;;;;;2.33;1.33;;;30.80;76.40;;;;;;5053558;28;20480;-57
2022/07/13 12:55:51;;;;;;;2.40;1.37;;;30.80;75.80;;;;;;5053923;28;20485;-57
2022/07/13 12:58:19;;;;;;;1.97;1.30;;;30.60;73.40;;;;;;5053938;28;20971;-57
2022/07/13 13:00:45;;;;;;;1.43;1.00;;;30.50;71.90;;;;;;5053822;28;20448;-55
2022/07/13 13:03:12;;;;;;;3.73;1.10;;;30.40;70.10;;;;;;5053562;28;21024;-57
2022/07/13 13:05:39;;;;;;;1.77;1.30;;;30.30;70.80;;;;;;5053418;28;20448;-57